createdAt,value
2022-11-10T00:01:18.541Z,42.00
2022-11-10T00:03:10.174Z,38.22
2022-11-10T00:05:00.881Z,45.13
2022-11-10T00:06:51.577Z,33.13
2022-11-10T00:08:42.066Z,33.97
2022-11-10T00:10:33.911Z,42.50
2022-11-10T00:12:24.695Z,33.92
2022-11-10T00:14:15.813Z,31.98
2022-11-10T00:16:06.745Z,37.78
2022-11-10T00:17:57.269Z,42.53
2022-11-10T00:19:48.257Z,30.52
2022-11-10T00:21:39.665Z,42.65
2022-11-10T00:23:30.211Z,43.17
2022-11-10T00:25:21.158Z,42.38
2022-11-10T00:27:13.042Z,40.67
2022-11-10T00:29:03.628Z,48.47
2022-11-10T00:30:53.827Z,42.65
2022-11-10T00:32:44.413Z,45.47
2022-11-10T00:34:35.117Z,26.02
2022-11-10T00:36:25.952Z,43.33
2022-11-10T00:38:16.683Z,40.40
2022-11-10T00:40:07.939Z,38.67
2022-11-10T00:41:58.843Z,45.90
2022-11-10T00:43:50.569Z,35.80
2022-11-10T00:45:42.898Z,40.30
2022-11-10T00:47:33.280Z,38.40
2022-11-10T00:49:24.318Z,36.65
2022-11-10T00:51:20.674Z,34.80
2022-11-10T00:53:11.296Z,40.30
2022-11-10T00:55:01.543Z,43.90
2022-11-10T00:56:52.320Z,38.95
2022-11-10T00:58:43.234Z,33.50
2022-11-10T01:00:35.225Z,33.30
2022-11-10T01:02:25.841Z,51.22
2022-11-10T01:04:16.381Z,51.80
2022-11-10T01:06:07.686Z,32.58
2022-11-10T01:07:59.015Z,41.17
2022-11-10T01:09:49.795Z,38.78
2022-11-10T01:11:40.355Z,43.97
2022-11-10T01:13:30.715Z,40.38
2022-11-10T01:15:26.157Z,39.60
2022-11-10T01:17:19.560Z,39.20
2022-11-10T01:19:10.519Z,36.35
2022-11-10T01:21:01.410Z,41.47
2022-11-10T01:22:52.093Z,47.25
2022-11-10T01:24:42.677Z,38.22
2022-11-10T01:26:33.090Z,40.95
2022-11-10T01:28:23.389Z,39.97
2022-11-10T01:30:13.900Z,38.67
2022-11-10T01:32:04.811Z,44.40
2022-11-10T01:33:58.954Z,49.00
2022-11-10T01:35:49.386Z,38.65
2022-11-10T01:37:39.867Z,32.13
2022-11-10T01:39:30.201Z,40.00
2022-11-10T01:41:21.052Z,37.35
2022-11-10T01:43:12.437Z,38.13
2022-11-10T01:45:48.830Z,36.13
2022-11-10T01:47:39.265Z,40.35
2022-11-10T01:49:31.795Z,48.17
2022-11-10T01:51:24.835Z,41.25
2022-11-10T01:53:18.870Z,44.40
2022-11-10T01:55:09.802Z,50.00
2022-11-10T01:57:03.176Z,45.83
2022-11-10T01:58:56.288Z,40.33
2022-11-10T02:00:47.108Z,38.40
2022-11-10T02:02:47.531Z,41.92
2022-11-10T02:04:40.086Z,45.28
2022-11-10T02:06:33.353Z,38.05
2022-11-10T02:08:25.317Z,36.03
2022-11-10T02:10:17.754Z,43.95
2022-11-10T02:12:08.119Z,35.30
2022-11-10T02:13:59.151Z,35.15
2022-11-10T02:15:49.683Z,32.90
2022-11-10T02:17:41.014Z,43.47
2022-11-10T02:19:41.464Z,32.92
2022-11-10T02:21:33.243Z,34.58
2022-11-10T02:23:46.216Z,36.00
2022-11-10T02:25:36.590Z,41.00
2022-11-10T02:27:26.950Z,37.58
2022-11-10T02:29:17.506Z,47.63
2022-11-10T02:31:07.813Z,38.53
2022-11-10T02:32:58.776Z,38.95
2022-11-10T02:34:49.054Z,33.47
2022-11-10T02:36:40.951Z,32.10
2022-11-10T02:40:21.833Z,45.60
2022-11-10T02:42:12.609Z,50.92
2022-11-10T02:44:03.658Z,29.63
2022-11-10T02:45:54.164Z,34.50
2022-11-10T02:47:46.356Z,37.70
2022-11-10T02:49:36.693Z,42.85
2022-11-10T02:51:27.504Z,38.50
2022-11-10T02:53:19.804Z,41.42
2022-11-10T02:55:10.609Z,34.85
2022-11-10T02:57:05.753Z,36.53
2022-11-10T02:59:01.636Z,37.03
2022-11-10T03:00:52.255Z,32.45
2022-11-10T03:02:45.482Z,34.80
2022-11-10T03:04:38.882Z,35.15
2022-11-10T03:06:33.533Z,52.97
2022-11-10T03:08:29.603Z,39.70
2022-11-10T03:10:20.616Z,48.63
2022-11-10T03:12:12.522Z,29.30
2022-11-10T03:14:03.377Z,39.03
2022-11-10T03:16:01.253Z,35.42
2022-11-10T03:17:52.207Z,37.20
2022-11-10T03:19:43.447Z,47.00
2022-11-10T03:21:33.887Z,41.47
2022-11-10T03:23:25.912Z,28.15
2022-11-10T03:25:16.685Z,34.50
2022-11-10T03:27:07.281Z,39.03
2022-11-10T03:28:58.506Z,50.53
2022-11-10T03:30:50.346Z,38.50
2022-11-10T03:32:41.731Z,36.90
2022-11-10T03:34:32.473Z,39.00
2022-11-10T03:36:24.098Z,42.85
2022-11-10T03:38:14.502Z,37.33
2022-11-10T03:40:09.042Z,30.42
2022-11-10T03:41:59.697Z,50.10
2022-11-10T03:43:50.112Z,37.13
2022-11-10T03:45:43.082Z,31.05
2022-11-10T03:47:33.830Z,45.22
2022-11-10T03:49:24.579Z,39.28
2022-11-10T03:51:14.872Z,34.53
2022-11-10T03:53:05.197Z,43.17
2022-11-10T03:54:59.280Z,42.65
2022-11-10T03:56:54.947Z,41.05
2022-11-10T03:58:45.383Z,49.97
2022-11-10T04:00:35.838Z,37.10
2022-11-10T04:02:26.454Z,41.65
2022-11-10T04:04:16.747Z,43.33
2022-11-10T04:06:08.272Z,39.60
2022-11-10T04:07:59.713Z,44.47
2022-11-10T04:09:50.189Z,41.20
2022-11-10T04:11:40.846Z,38.22
2022-11-10T04:13:32.413Z,35.15
2022-11-10T04:15:23.171Z,35.35
2022-11-10T04:17:13.783Z,39.70
2022-11-10T04:19:04.432Z,41.65
2022-11-10T04:20:56.426Z,42.03
2022-11-10T04:22:47.250Z,41.42
2022-11-10T04:24:37.681Z,47.60
2022-11-10T04:26:28.116Z,43.20
2022-11-10T04:28:18.305Z,36.15
2022-11-10T04:30:10.942Z,32.97
2022-11-10T04:32:01.267Z,39.50
2022-11-10T04:33:52.722Z,48.00
2022-11-10T04:35:43.197Z,43.42
2022-11-10T04:37:33.807Z,37.70
2022-11-10T04:39:24.211Z,37.05
2022-11-10T04:41:15.429Z,44.80
2022-11-10T04:43:06.196Z,49.78
2022-11-10T04:44:56.648Z,39.53
2022-11-10T04:46:48.342Z,42.65
2022-11-10T04:48:39.085Z,37.00
2022-11-10T04:50:29.543Z,40.35
2022-11-10T04:52:19.979Z,45.90
2022-11-10T04:54:11.703Z,37.53
2022-11-10T04:57:52.969Z,45.75
2022-11-10T04:59:43.800Z,39.55
2022-11-10T05:01:34.155Z,45.20
2022-11-10T05:03:25.927Z,48.60
2022-11-10T05:05:16.908Z,40.85
2022-11-10T05:07:07.213Z,33.90
2022-11-10T05:08:57.478Z,44.25
2022-11-10T05:10:49.306Z,42.85
2022-11-10T05:12:39.854Z,44.88
2022-11-10T05:14:30.218Z,46.83
2022-11-10T05:16:20.687Z,40.88
2022-11-10T05:18:11.174Z,40.70
2022-11-10T05:20:03.477Z,41.20
2022-11-10T05:21:53.859Z,55.78
2022-11-10T05:23:44.341Z,38.45
2022-11-10T05:25:35.619Z,39.13
2022-11-10T05:27:25.867Z,40.80
2022-11-10T05:29:16.266Z,34.40
2022-11-10T05:31:07.043Z,34.00
2022-11-10T05:32:57.577Z,46.67
2022-11-10T05:34:48.051Z,47.45
2022-11-10T05:36:40.403Z,47.40
2022-11-10T05:38:31.228Z,38.53
2022-11-10T05:40:21.706Z,36.83
2022-11-10T05:42:12.173Z,31.60
2022-11-10T05:44:02.482Z,37.85
2022-11-10T05:45:52.732Z,36.67
2022-11-10T05:47:43.079Z,35.20
2022-11-10T05:49:34.004Z,49.60
2022-11-10T05:51:24.896Z,36.88
2022-11-10T05:53:16.610Z,48.47
2022-11-10T05:55:08.103Z,57.55
2022-11-10T05:56:58.519Z,41.92
2022-11-10T05:58:49.176Z,50.22
2022-11-10T06:00:39.493Z,41.95
2022-11-10T06:02:30.121Z,48.40
2022-11-10T06:04:20.477Z,38.35
2022-11-10T06:06:11.441Z,41.95
2022-11-10T06:08:02.667Z,36.00
2022-11-10T06:09:54.491Z,38.47
2022-11-10T06:11:44.661Z,43.75
2022-11-10T06:13:34.965Z,38.67
2022-11-10T06:15:26.030Z,45.33
2022-11-10T06:17:16.446Z,39.40
2022-11-10T06:19:06.878Z,34.85
2022-11-10T06:20:57.312Z,47.97
2022-11-10T06:22:58.305Z,36.67
2022-11-10T06:24:48.832Z,41.25
2022-11-10T06:26:40.669Z,32.30
2022-11-10T06:28:31.221Z,33.40
2022-11-10T06:30:21.961Z,34.05
2022-11-10T06:32:12.589Z,39.53
2022-11-10T06:34:03.142Z,34.90
2022-11-10T06:35:53.353Z,31.50
2022-11-10T06:37:43.740Z,33.45
2022-11-10T06:39:34.103Z,33.38
2022-11-10T06:41:25.524Z,43.38
2022-11-10T06:43:17.491Z,40.85
2022-11-10T06:45:09.321Z,39.65
2022-11-10T06:46:59.780Z,47.88
2022-11-10T06:48:50.280Z,43.97
2022-11-10T06:50:41.212Z,40.55
2022-11-10T06:52:31.591Z,32.95
2022-11-10T06:54:22.109Z,45.38
2022-11-10T06:56:12.508Z,42.20
2022-11-10T06:58:02.858Z,39.63
2022-11-10T06:59:54.503Z,38.88
2022-11-10T07:01:45.014Z,36.22
2022-11-10T07:03:38.867Z,37.47
2022-11-10T07:05:36.026Z,39.83
2022-11-10T07:07:26.884Z,41.33
2022-11-10T07:09:19.110Z,38.90
2022-11-10T07:11:09.353Z,32.65
2022-11-10T07:13:00.838Z,37.25
2022-11-10T07:14:51.230Z,46.95
2022-11-10T07:16:42.836Z,36.65
2022-11-10T07:18:33.694Z,36.55
2022-11-10T07:20:24.364Z,43.03
2022-11-10T07:22:14.945Z,38.00
2022-11-10T07:24:06.207Z,41.58
2022-11-10T07:25:58.609Z,37.93
2022-11-10T07:27:53.756Z,47.10
2022-11-10T07:29:45.886Z,37.35
2022-11-10T07:31:38.578Z,38.58
2022-11-10T07:33:30.194Z,36.22
2022-11-10T07:35:20.469Z,42.35
2022-11-10T07:37:10.957Z,28.33
2022-11-10T07:39:01.202Z,40.85
2022-11-10T07:40:52.707Z,39.05
2022-11-10T07:42:43.052Z,39.90
2022-11-10T07:44:33.243Z,35.03
2022-11-10T07:46:23.641Z,35.28
2022-11-10T07:48:14.134Z,42.55
2022-11-10T07:50:07.455Z,39.63
2022-11-10T07:51:58.263Z,34.92
2022-11-10T07:53:49.985Z,43.83
2022-11-10T07:55:42.638Z,44.08
2022-11-10T07:57:33.835Z,38.33
2022-11-10T07:59:24.166Z,39.28
2022-11-10T08:01:14.796Z,35.85
2022-11-10T08:03:06.340Z,35.95
2022-11-10T08:04:58.845Z,34.05
2022-11-10T08:06:50.930Z,33.85
2022-11-10T08:10:32.694Z,38.58
2022-11-10T08:12:23.623Z,34.43
2022-11-10T08:14:13.990Z,38.45
2022-11-10T08:16:04.910Z,34.72
2022-11-10T08:17:58.846Z,39.20
2022-11-10T08:19:49.199Z,38.33
2022-11-10T08:21:41.202Z,37.42
2022-11-10T08:23:32.959Z,33.35
2022-11-10T08:25:23.624Z,49.58
2022-11-10T08:27:16.352Z,29.77
2022-11-10T08:29:06.918Z,35.25
2022-11-10T08:31:00.350Z,35.17
2022-11-10T08:32:55.316Z,29.75
2022-11-10T08:34:46.023Z,34.50
2022-11-10T08:36:36.514Z,34.97
2022-11-10T08:38:26.846Z,28.90
2022-11-10T08:40:19.495Z,36.20
2022-11-10T08:42:10.073Z,38.03
2022-11-10T08:44:00.825Z,32.90
2022-11-10T08:45:54.358Z,31.92
2022-11-10T08:47:44.671Z,38.22
2022-11-10T08:49:34.978Z,36.85
2022-11-10T08:51:25.628Z,43.33
2022-11-10T08:53:17.761Z,32.22
2022-11-10T08:55:09.153Z,34.60
2022-11-10T08:57:01.194Z,29.70
2022-11-10T08:58:53.554Z,26.17
2022-11-10T09:00:44.298Z,39.35
2022-11-10T09:02:35.106Z,38.60
2022-11-10T09:04:25.620Z,33.35
2022-11-10T09:06:16.763Z,28.60
2022-11-10T09:08:07.539Z,36.72
2022-11-10T09:10:06.608Z,31.15
2022-11-10T09:11:58.387Z,28.75
2022-11-10T09:13:50.107Z,26.98
2022-11-10T09:15:41.457Z,44.25
2022-11-10T09:17:32.498Z,38.73
2022-11-10T09:19:23.259Z,34.72
2022-11-10T09:21:13.563Z,32.25
2022-11-10T09:23:05.505Z,30.33
2022-11-10T09:24:55.948Z,30.02
2022-11-10T09:26:46.059Z,39.33
2022-11-10T09:28:36.629Z,28.30
2022-11-10T09:30:28.881Z,25.13
2022-11-10T09:34:10.560Z,38.28
2022-11-10T09:36:03.221Z,21.38
2022-11-10T09:37:53.843Z,25.67
2022-11-10T09:39:44.261Z,28.45
2022-11-10T09:41:39.256Z,37.72
2022-11-10T09:43:34.269Z,29.33
2022-11-10T09:45:26.827Z,26.55
2022-11-10T09:47:50.549Z,28.20
2022-11-10T09:49:36.791Z,34.78
2022-11-10T09:51:30.476Z,28.45
2022-11-10T09:53:23.327Z,35.55
2022-11-10T09:55:22.338Z,29.48
2022-11-10T09:57:14.409Z,32.67
2022-11-10T09:59:11.113Z,35.35
2022-11-10T10:01:26.093Z,36.70
2022-11-10T10:03:22.827Z,33.33
2022-11-10T10:05:52.612Z,29.73
2022-11-10T10:07:48.745Z,30.83
2022-11-10T10:09:46.066Z,28.67
2022-11-10T10:11:43.850Z,28.10
2022-11-10T10:14:03.106Z,23.65
2022-11-10T10:16:03.344Z,29.50
2022-11-10T10:18:03.026Z,26.30
2022-11-10T10:19:58.259Z,40.95
2022-11-10T10:21:59.277Z,31.67
2022-11-10T10:24:09.418Z,31.40
2022-11-10T10:26:02.025Z,40.70
2022-11-10T10:27:59.747Z,30.08
2022-11-10T10:29:50.127Z,39.97
2022-11-10T10:31:42.912Z,33.42
2022-11-10T10:33:33.268Z,37.40
2022-11-10T10:35:25.304Z,28.65
2022-11-10T10:37:23.390Z,26.70
2022-11-10T10:39:16.689Z,38.45
2022-11-10T10:41:14.786Z,34.67
2022-11-10T10:43:07.858Z,32.17
2022-11-10T10:45:16.703Z,28.40
2022-11-10T10:47:07.593Z,36.33
2022-11-10T10:49:28.197Z,32.92
2022-11-10T10:51:31.190Z,28.73
2022-11-10T10:53:22.932Z,27.63
2022-11-10T10:55:13.663Z,35.23
2022-11-10T10:57:07.115Z,25.58
2022-11-10T10:59:00.246Z,32.65
2022-11-10T11:00:53.107Z,32.72
2022-11-10T11:02:43.796Z,21.50
2022-11-10T11:04:37.345Z,33.20
2022-11-10T11:06:30.504Z,27.48
2022-11-10T11:08:21.048Z,28.60
2022-11-10T11:10:19.993Z,31.85
2022-11-10T11:12:27.247Z,27.98
2022-11-10T11:14:20.877Z,27.75
2022-11-10T11:16:11.570Z,29.83
2022-11-10T11:18:03.676Z,31.40
2022-11-10T11:22:18.303Z,22.45
2022-11-10T11:24:20.957Z,31.30
2022-11-10T11:26:17.943Z,26.55
2022-11-10T11:28:16.515Z,35.72
2022-11-10T11:30:10.531Z,22.88
2022-11-10T11:32:11.085Z,29.42
2022-11-10T11:34:03.377Z,26.42
2022-11-10T11:37:52.257Z,28.38
2022-11-10T11:39:52.183Z,24.25
2022-11-10T11:41:49.144Z,30.40
2022-11-10T11:44:02.108Z,26.50
2022-11-10T11:45:56.962Z,30.75
2022-11-10T11:48:10.516Z,27.45
2022-11-10T11:50:16.598Z,28.05
2022-11-10T11:52:12.035Z,32.33
2022-11-10T11:54:29.395Z,23.02
2022-11-10T11:56:24.598Z,26.60
2022-11-10T11:58:25.478Z,24.88
2022-11-10T12:00:17.990Z,23.70
2022-11-10T12:02:29.941Z,30.05
2022-11-10T12:04:37.980Z,30.25
2022-11-10T12:06:37.258Z,27.27
2022-11-10T12:08:36.350Z,22.70
2022-11-10T12:10:41.979Z,32.25
2022-11-10T12:12:58.300Z,26.70
2022-11-10T12:14:53.797Z,28.10
2022-11-10T12:16:47.001Z,19.33
2022-11-10T12:18:49.487Z,28.73
2022-11-10T12:20:48.810Z,28.58
2022-11-10T12:22:47.002Z,29.15
2022-11-10T12:24:51.126Z,21.42
2022-11-10T12:26:47.935Z,44.38
2022-11-10T12:28:41.631Z,34.65
2022-11-10T12:30:32.836Z,26.90
2022-11-10T12:32:27.605Z,30.85
2022-11-10T12:34:23.224Z,19.30
2022-11-10T12:36:16.605Z,30.92
2022-11-10T12:38:08.499Z,21.23
2022-11-10T12:40:02.146Z,26.15
2022-11-10T12:41:58.169Z,25.30
2022-11-10T12:44:00.479Z,25.10
2022-11-10T12:47:45.436Z,18.10
2022-11-10T12:49:37.657Z,19.42
2022-11-10T12:51:31.172Z,28.30
2022-11-10T12:53:23.622Z,26.70
2022-11-10T12:57:08.463Z,29.75
2022-11-10T12:59:23.304Z,31.95
2022-11-10T13:01:16.115Z,23.30
2022-11-10T13:03:14.227Z,24.00
2022-11-10T13:05:26.196Z,31.88
2022-11-10T13:07:24.471Z,22.35
2022-11-10T13:09:26.050Z,24.63
2022-11-10T13:11:26.696Z,27.10
2022-11-10T13:13:19.331Z,29.00
2022-11-10T13:15:43.377Z,17.08
2022-11-10T13:17:53.396Z,25.75
2022-11-10T13:19:51.011Z,20.77
2022-11-10T13:22:04.695Z,30.05
2022-11-10T13:24:20.678Z,28.02
2022-11-10T13:26:12.048Z,25.95
2022-11-10T13:28:04.070Z,29.70
2022-11-10T13:29:57.400Z,18.85
2022-11-10T13:31:53.190Z,23.60
2022-11-10T13:34:04.434Z,25.92
2022-11-10T13:35:56.755Z,26.63
2022-11-10T13:37:47.702Z,25.25
2022-11-10T13:39:39.805Z,25.92
2022-11-10T13:41:32.736Z,30.65
2022-11-10T13:43:25.650Z,28.05
2022-11-10T13:45:32.497Z,23.80
2022-11-10T13:47:40.172Z,22.60
2022-11-10T13:49:39.529Z,26.95
2022-11-10T13:51:38.489Z,22.48
2022-11-10T13:53:35.258Z,22.60
2022-11-10T13:55:31.898Z,25.27
2022-11-10T13:57:28.081Z,29.73
2022-11-10T13:59:20.242Z,20.10
2022-11-10T14:03:55.012Z,25.98
2022-11-10T14:06:04.754Z,21.00
2022-11-10T14:07:57.778Z,22.27
2022-11-10T14:09:50.611Z,26.02
2022-11-10T14:11:48.599Z,23.13
2022-11-10T14:13:43.072Z,24.85
2022-11-10T14:15:39.241Z,28.30
2022-11-10T14:17:33.868Z,17.00
2022-11-10T14:19:36.253Z,20.60
2022-11-10T14:21:30.980Z,20.45
2022-11-10T14:23:24.966Z,28.35
2022-11-10T14:25:21.320Z,19.10
2022-11-10T14:27:15.336Z,19.77
2022-11-10T14:29:27.545Z,17.88
2022-11-10T14:31:20.310Z,15.85
2022-11-10T14:33:14.453Z,19.30
2022-11-10T14:35:06.050Z,20.65
2022-11-10T14:36:58.078Z,19.10
2022-11-10T14:38:48.890Z,28.67
2022-11-10T14:40:42.603Z,19.55
2022-11-10T14:42:33.993Z,24.35
2022-11-10T14:44:26.437Z,19.70
2022-11-10T14:46:16.970Z,23.52
2022-11-10T14:48:19.050Z,27.77
2022-11-10T14:50:17.814Z,16.80
2022-11-10T14:52:11.845Z,26.23
2022-11-10T14:54:02.278Z,25.52
2022-11-10T14:55:54.910Z,26.35
2022-11-10T15:00:51.418Z,21.50
2022-11-10T15:03:17.786Z,12.60
2022-11-10T15:06:32.931Z,18.70
2022-11-10T15:08:39.921Z,18.63
2022-11-10T15:10:48.381Z,38.42
2022-11-10T15:13:02.820Z,19.52
2022-11-10T15:15:20.363Z,24.25
2022-11-10T15:17:47.550Z,19.60
2022-11-10T15:19:28.286Z,26.52
2022-11-10T15:21:06.294Z,21.92
2022-11-10T15:22:44.341Z,24.92
2022-11-10T15:24:26.771Z,19.48
2022-11-10T15:26:06.368Z,23.38
2022-11-10T15:27:58.513Z,19.80
2022-11-10T15:29:34.057Z,20.58
2022-11-10T15:31:23.835Z,16.30
2022-11-10T15:33:02.423Z,23.23
2022-11-10T15:34:43.596Z,23.38
2022-11-10T15:36:30.267Z,19.45
2022-11-10T15:38:24.978Z,32.30
2022-11-10T15:40:32.697Z,19.73
2022-11-10T15:42:15.592Z,19.92
2022-11-10T15:43:54.695Z,14.07
2022-11-10T15:45:30.395Z,24.00
2022-11-10T15:47:11.174Z,17.73
2022-11-10T15:48:52.728Z,17.05
2022-11-10T15:50:30.851Z,19.40
2022-11-10T15:52:15.321Z,19.77
2022-11-10T15:53:51.815Z,20.63
2022-11-10T15:55:30.846Z,18.13
2022-11-10T15:57:12.113Z,19.13
2022-11-10T15:58:51.072Z,11.27
2022-11-10T16:00:28.148Z,19.45
2022-11-10T16:02:16.052Z,20.92
2022-11-10T16:03:58.103Z,20.88
2022-11-10T16:06:59.480Z,19.35
2022-11-10T16:08:35.153Z,14.85
2022-11-10T16:10:11.556Z,22.67
2022-11-10T16:11:47.078Z,17.48
2022-11-10T16:13:26.474Z,14.57
2022-11-10T16:15:03.696Z,27.45
2022-11-10T16:16:40.442Z,19.45
2022-11-10T16:18:20.344Z,19.70
2022-11-10T16:19:56.882Z,20.20
2022-11-10T16:21:37.850Z,17.65
2022-11-10T16:23:14.042Z,22.23
2022-11-10T16:24:49.753Z,21.00
2022-11-10T16:26:26.605Z,16.75
2022-11-10T16:28:04.548Z,16.35
2022-11-10T16:29:41.465Z,12.60
2022-11-10T16:31:22.732Z,12.20
2022-11-10T16:32:58.266Z,21.25
2022-11-10T16:34:33.790Z,12.98
2022-11-10T16:36:23.269Z,13.43
2022-11-10T16:37:58.406Z,17.73
2022-11-10T16:39:34.518Z,12.93
2022-11-10T16:41:16.468Z,13.23
2022-11-10T16:42:52.813Z,12.13
2022-11-10T16:44:30.999Z,12.95
2022-11-10T16:46:19.444Z,16.20
2022-11-10T16:47:54.695Z,17.10
2022-11-10T16:49:34.815Z,14.30
2022-11-10T16:51:16.749Z,22.35
2022-11-10T16:52:52.883Z,14.77
2022-11-10T16:54:28.475Z,13.18
2022-11-10T16:56:04.689Z,11.63
2022-11-10T16:57:40.269Z,11.43
2022-11-10T16:59:15.822Z,19.67
2022-11-10T17:00:53.484Z,16.25
2022-11-10T17:02:34.550Z,15.38
2022-11-10T17:04:15.635Z,16.17
2022-11-10T17:05:56.742Z,14.85
2022-11-10T17:07:34.286Z,10.23
2022-11-10T17:09:16.319Z,16.38
2022-11-10T17:10:54.072Z,14.00
2022-11-10T17:12:28.923Z,14.48
2022-11-10T17:14:04.827Z,13.43
2022-11-10T17:15:40.055Z,18.02
2022-11-10T17:17:18.289Z,12.85
2022-11-10T17:18:53.605Z,13.07
2022-11-10T17:20:34.630Z,13.82
2022-11-10T17:22:12.244Z,16.70
2022-11-10T17:23:48.761Z,11.50
2022-11-10T17:25:27.356Z,17.70
2022-11-10T17:27:02.214Z,12.55
2022-11-10T17:28:37.179Z,15.80
2022-11-10T17:30:13.137Z,18.83
2022-11-10T17:31:48.504Z,15.27
2022-11-10T17:33:24.289Z,17.30
2022-11-10T17:34:58.951Z,17.00
2022-11-10T17:36:35.212Z,15.35
2022-11-10T17:38:15.117Z,15.77
2022-11-10T17:39:51.647Z,20.40
2022-11-10T17:41:33.580Z,19.23
2022-11-10T17:43:11.377Z,18.35
2022-11-10T17:44:47.367Z,16.58
2022-11-10T17:46:22.667Z,16.98
2022-11-10T17:47:57.646Z,17.63
2022-11-10T17:49:33.744Z,25.88
2022-11-10T17:51:18.995Z,16.55
2022-11-10T17:52:54.319Z,16.40
2022-11-10T17:54:29.606Z,19.17
2022-11-10T17:56:06.939Z,17.48
2022-11-10T17:57:42.191Z,22.98
2022-11-10T17:59:17.298Z,21.30
2022-11-10T18:00:55.083Z,24.80
2022-11-10T18:02:30.119Z,14.57
2022-11-10T18:04:13.328Z,19.77
2022-11-10T18:05:53.996Z,15.40
2022-11-10T18:07:29.157Z,24.45
2022-11-10T18:09:05.471Z,19.23
2022-11-10T18:10:42.114Z,21.73
2022-11-10T18:12:20.902Z,24.88
2022-11-10T18:14:00.998Z,18.75
2022-11-10T18:15:42.490Z,14.85
2022-11-10T18:17:18.919Z,18.33
2022-11-10T18:18:54.492Z,22.40
2022-11-10T18:20:30.773Z,18.52
2022-11-10T18:22:07.283Z,16.27
2022-11-10T18:23:43.586Z,19.77
2022-11-10T18:25:19.866Z,22.50
2022-11-10T18:26:55.087Z,20.08
2022-11-10T18:28:35.929Z,20.83
2022-11-10T18:30:14.861Z,22.17
2022-11-10T18:31:53.709Z,20.30
2022-11-10T18:33:28.763Z,20.35
2022-11-10T18:35:05.124Z,16.45
2022-11-10T18:36:41.472Z,24.33
2022-11-10T18:38:17.338Z,24.98
2022-11-10T18:39:52.359Z,21.55
2022-11-10T18:41:33.132Z,26.13
2022-11-10T18:43:08.847Z,19.15
2022-11-10T18:44:45.713Z,18.23
2022-11-10T18:46:21.087Z,16.90
2022-11-10T18:48:01.823Z,22.30
2022-11-10T18:49:36.720Z,17.98
2022-11-10T18:51:17.728Z,22.80
2022-11-10T18:52:53.122Z,18.77
2022-11-10T18:54:28.050Z,19.52
2022-11-10T18:56:04.001Z,16.27
2022-11-10T18:57:39.768Z,16.38
2022-11-10T18:59:15.198Z,16.90
2022-11-10T19:01:01.012Z,23.95
2022-11-10T19:02:35.743Z,15.50
2022-11-10T19:04:16.372Z,19.55
2022-11-10T19:05:58.820Z,23.63
2022-11-10T19:07:34.176Z,25.02
2022-11-10T19:09:11.704Z,17.42
2022-11-10T19:10:46.158Z,19.63
2022-11-10T19:12:26.271Z,16.08
2022-11-10T19:14:02.214Z,24.50
2022-11-10T19:15:40.606Z,19.17
2022-11-10T19:17:17.328Z,15.00
2022-11-10T19:18:52.108Z,17.48
2022-11-10T19:20:27.540Z,19.83
2022-11-10T19:22:02.382Z,18.60
2022-11-10T19:23:37.403Z,13.60
2022-11-10T19:25:12.584Z,15.38
2022-11-10T19:26:49.713Z,30.80
2022-11-10T19:28:25.540Z,21.52
2022-11-10T19:30:00.979Z,18.73
2022-11-10T19:31:36.827Z,19.30
2022-11-10T19:33:13.922Z,16.27
2022-11-10T19:34:48.423Z,19.05
2022-11-10T19:36:25.573Z,24.92
2022-11-10T19:38:00.728Z,19.30
2022-11-10T19:39:36.219Z,17.73
2022-11-10T19:41:20.422Z,16.10
2022-11-10T19:42:55.967Z,23.38
2022-11-10T19:44:31.339Z,22.55
2022-11-10T19:46:10.167Z,17.17
2022-11-10T19:47:45.114Z,21.77
2022-11-10T19:49:22.344Z,15.35
2022-11-10T19:50:59.122Z,16.33
2022-11-10T19:52:34.507Z,17.92
2022-11-10T19:54:10.641Z,17.60
2022-11-10T19:55:45.872Z,20.08
2022-11-10T19:57:22.070Z,16.65
2022-11-10T19:58:56.978Z,25.02
2022-11-10T20:00:32.435Z,19.25
2022-11-10T20:02:12.270Z,21.77
2022-11-10T20:03:54.437Z,19.50
2022-11-10T20:05:36.823Z,23.45
2022-11-10T20:07:20.144Z,26.52
2022-11-10T20:08:55.385Z,17.75
2022-11-10T20:10:31.282Z,24.85
2022-11-10T20:12:07.209Z,18.05
2022-11-10T20:13:43.731Z,22.58
2022-11-10T20:15:19.386Z,19.80
2022-11-10T20:16:54.475Z,17.90
2022-11-10T20:18:29.542Z,19.63
2022-11-10T20:20:06.606Z,20.35
2022-11-10T20:21:43.542Z,25.45
2022-11-10T20:23:20.089Z,22.63
2022-11-10T20:24:55.927Z,21.45
2022-11-10T20:26:33.959Z,22.65
2022-11-10T20:28:12.170Z,24.17
2022-11-10T20:29:47.505Z,24.25
2022-11-10T20:31:29.718Z,16.95
2022-11-10T20:33:06.136Z,22.92
2022-11-10T20:34:41.995Z,19.27
2022-11-10T20:36:21.639Z,19.60
2022-11-10T20:37:58.151Z,25.10
2022-11-10T20:39:33.683Z,20.48
2022-11-10T20:41:18.586Z,28.77
2022-11-10T20:42:54.348Z,16.58
2022-11-10T20:44:31.538Z,22.33
2022-11-10T20:46:16.152Z,22.35
2022-11-10T20:48:00.791Z,19.25
2022-11-10T20:49:36.346Z,18.27
2022-11-10T20:51:20.223Z,19.45
2022-11-10T20:52:56.915Z,19.40
2022-11-10T20:54:32.559Z,23.23
2022-11-10T20:56:09.915Z,14.43
2022-11-10T20:57:46.229Z,28.83
2022-11-10T20:59:21.493Z,19.98
2022-11-10T21:01:01.991Z,22.90
2022-11-10T21:02:37.801Z,15.98
2022-11-10T21:04:18.507Z,20.55
2022-11-10T21:06:00.262Z,22.08
2022-11-10T21:07:39.203Z,28.20
2022-11-10T21:09:16.631Z,21.67
2022-11-10T21:10:53.536Z,14.88
2022-11-10T21:12:30.867Z,23.27
2022-11-10T21:14:06.129Z,34.63
2022-11-10T21:15:41.519Z,18.35
2022-11-10T21:17:17.511Z,25.48
2022-11-10T21:18:56.009Z,24.67
2022-11-10T21:20:33.083Z,21.33
2022-11-10T21:22:08.570Z,18.88
2022-11-10T21:23:44.591Z,22.30
2022-11-10T21:25:22.126Z,22.85
2022-11-10T21:26:58.397Z,21.83
2022-11-10T21:28:33.732Z,22.92
2022-11-10T21:30:14.164Z,20.92
2022-11-10T21:31:51.042Z,25.17
2022-11-10T21:33:30.697Z,20.00
2022-11-10T21:35:07.794Z,25.95
2022-11-10T21:36:43.600Z,21.75
2022-11-10T21:38:18.809Z,20.13
2022-11-10T21:39:58.388Z,23.60
2022-11-10T21:41:39.180Z,24.38
2022-11-10T21:43:15.089Z,20.42
2022-11-10T21:44:50.434Z,23.88
2022-11-10T21:46:25.762Z,25.33
2022-11-10T21:48:02.237Z,24.48
2022-11-10T21:49:37.837Z,18.15
2022-11-10T21:51:18.636Z,20.38
2022-11-10T21:52:54.064Z,26.75
2022-11-10T21:54:29.530Z,22.85
2022-11-10T21:56:07.742Z,21.77
2022-11-10T21:57:44.332Z,25.23
2022-11-10T21:59:20.084Z,19.48
2022-11-10T22:01:01.073Z,21.77
2022-11-10T22:02:35.755Z,25.50
2022-11-10T22:04:16.224Z,22.50
2022-11-10T22:06:03.233Z,22.00
2022-11-10T22:07:39.060Z,24.38
2022-11-10T22:09:14.387Z,18.17
2022-11-10T22:10:50.126Z,30.35
2022-11-10T22:12:25.809Z,22.58
2022-11-10T22:14:03.239Z,25.45
2022-11-10T22:15:40.626Z,25.27
2022-11-10T22:17:16.346Z,26.45
2022-11-10T22:18:51.454Z,23.50
2022-11-10T22:20:26.263Z,23.88
2022-11-10T22:22:03.892Z,23.23
2022-11-10T22:23:39.782Z,29.92
2022-11-10T22:25:15.391Z,31.27
2022-11-10T22:26:52.662Z,23.73
2022-11-10T22:28:27.696Z,24.33
2022-11-10T22:30:05.313Z,15.93
2022-11-10T22:31:40.909Z,21.90
2022-11-10T22:33:15.501Z,23.83
2022-11-10T22:34:50.976Z,24.00
2022-11-10T22:36:26.011Z,20.92
2022-11-10T22:38:05.057Z,24.45
2022-11-10T22:39:40.530Z,22.83
2022-11-10T22:41:20.956Z,29.63
2022-11-10T22:42:56.259Z,21.98
2022-11-10T22:44:31.154Z,24.30
2022-11-10T22:46:08.460Z,21.17
2022-11-10T22:47:44.116Z,26.20
2022-11-10T22:49:21.852Z,25.75
2022-11-10T22:50:58.032Z,29.73
2022-11-10T22:52:36.109Z,22.00
2022-11-10T22:54:17.381Z,21.77
2022-11-10T22:55:52.404Z,23.23
2022-11-10T22:57:27.478Z,27.48
2022-11-10T22:59:04.355Z,22.45
2022-11-10T23:00:39.600Z,30.50
2022-11-10T23:02:21.671Z,23.45
2022-11-10T23:04:02.703Z,25.55
2022-11-10T23:05:43.141Z,30.45
2022-11-10T23:07:18.640Z,24.00
2022-11-10T23:08:54.451Z,21.58
2022-11-10T23:10:30.563Z,24.42
2022-11-10T23:12:06.151Z,22.92
2022-11-10T23:13:43.894Z,24.55
2022-11-10T23:15:19.644Z,24.70
2022-11-10T23:16:54.997Z,29.73
2022-11-10T23:18:31.962Z,30.58
2022-11-10T23:20:09.178Z,28.70
2022-11-10T23:21:46.052Z,34.08
2022-11-10T23:23:21.756Z,32.47
2022-11-10T23:24:57.772Z,25.63
2022-11-10T23:26:32.759Z,30.42
2022-11-10T23:28:09.423Z,29.83
2022-11-10T23:29:44.977Z,33.78
2022-11-10T23:31:27.041Z,31.52